Portada
METAR-TAF:

METAR-TAF

Aeroports :

Rasht, Iran

latitud: 37-12N, longitud: 049-38E, altitud: -7 m

Observació

L'informe es va fer fa 32 minuts, a les 03:30 UTC
Vent calma
Temperatura 24°C
Humitat 83%
Pressió 1008 hPa
Visibilitat 10 km o més
Núvols disperses a una alçada de 5000 ft
Núvols disperses a una alçada de 20000 ft

METAR: OIGG 220330Z 00000KT 9999 SCT050 SCT200 24/21 Q1008

Hora: 08:32 (04:02 UTC)


TAF: manca

Observacions i pronòstics meteorològics de més de 4000 aeroports (METAR i TAF).

Les estacions disponibles són els punts grocs i vermells al mapa.

Posi el ratolí al punt desitjat per veure el nom de l'estació.

Feu clic per veure les observacions i els pronòstics meteorològics.

Per canviar el mapa: feu clic els botons verds amb una creu de color negre per apropar; al botó verd amb un guió per allunyar la imatge; o en les fletxes verdes per a mapes adjacents.


METAR-TAF: